createdAt,value
2024-03-05T00:01:23.760Z,22.47
2024-03-05T00:03:51.294Z,23.63
2024-03-05T00:06:18.274Z,22.07
2024-03-05T00:08:45.573Z,22.93
2024-03-05T00:11:12.916Z,22.17
2024-03-05T00:13:42.264Z,23.20
2024-03-05T00:16:09.723Z,21.03
2024-03-05T00:18:37.283Z,22.50
2024-03-05T00:21:05.185Z,21.40
2024-03-05T00:23:33.278Z,23.33
2024-03-05T00:26:00.906Z,22.60
2024-03-05T00:28:28.336Z,21.97
2024-03-05T00:30:55.753Z,23.33
2024-03-05T00:33:23.198Z,22.93
2024-03-05T00:35:50.817Z,23.00
2024-03-05T00:38:22.453Z,22.57
2024-03-05T00:40:55.849Z,21.83
2024-03-05T00:43:26.234Z,22.57
2024-03-05T00:45:53.605Z,22.90
2024-03-05T00:48:20.697Z,22.80
2024-03-05T00:50:48.094Z,21.30
2024-03-05T00:53:17.130Z,24.30
2024-03-05T00:55:44.322Z,22.57
2024-03-05T00:58:11.874Z,21.83
2024-03-05T01:00:41.160Z,23.57
2024-03-05T01:03:08.428Z,23.00
2024-03-05T01:05:35.761Z,22.80
2024-03-05T01:08:04.297Z,21.60
2024-03-05T01:10:31.669Z,23.77
2024-03-05T01:12:58.974Z,22.33
2024-03-05T01:15:26.826Z,22.50
2024-03-05T01:17:56.882Z,22.23
2024-03-05T01:20:24.092Z,23.27
2024-03-05T01:22:51.609Z,22.97
2024-03-05T01:25:19.286Z,23.73
2024-03-05T01:27:47.092Z,22.90
2024-03-05T01:30:18.641Z,22.37
2024-03-05T01:32:48.252Z,23.40
2024-03-05T01:35:17.913Z,21.80
2024-03-05T01:37:45.260Z,22.23
2024-03-05T01:40:16.013Z,22.33
2024-03-05T01:42:43.492Z,25.13
2024-03-05T01:45:11.181Z,24.33
2024-03-05T01:47:38.437Z,22.97
2024-03-05T01:50:07.700Z,25.53
2024-03-05T01:52:37.867Z,25.60
2024-03-05T01:55:11.421Z,22.57
2024-03-05T01:57:43.177Z,22.93
2024-03-05T02:00:12.496Z,22.37
2024-03-05T02:02:39.957Z,23.63
2024-03-05T02:05:10.305Z,24.40
2024-03-05T02:07:38.415Z,21.47
2024-03-05T02:10:09.111Z,21.30
2024-03-05T02:12:43.677Z,24.20
2024-03-05T02:15:15.741Z,24.47
2024-03-05T02:17:46.196Z,23.60
2024-03-05T02:20:16.546Z,22.37
2024-03-05T02:22:44.449Z,21.53
2024-03-05T02:25:11.863Z,21.57
2024-03-05T02:27:40.241Z,22.57
2024-03-05T02:30:14.135Z,25.00
2024-03-05T02:32:43.500Z,22.00
2024-03-05T02:35:12.488Z,23.20
2024-03-05T02:37:40.343Z,24.00
2024-03-05T02:40:10.355Z,22.97
2024-03-05T02:42:38.435Z,24.40
2024-03-05T02:45:06.406Z,23.67
2024-03-05T02:47:43.868Z,21.23
2024-03-05T02:50:12.345Z,23.97
2024-03-05T02:52:40.633Z,25.10
2024-03-05T02:55:11.511Z,21.90
2024-03-05T02:57:43.172Z,22.33
2024-03-05T03:00:11.998Z,24.47
2024-03-05T03:02:39.200Z,23.50
2024-03-05T03:05:07.322Z,25.00
2024-03-05T03:07:34.828Z,24.00
2024-03-05T03:10:02.086Z,22.63
2024-03-05T03:12:29.280Z,23.93
2024-03-05T03:14:56.543Z,24.83
2024-03-05T03:17:24.013Z,22.97
2024-03-05T03:19:51.537Z,24.47
2024-03-05T03:22:19.144Z,25.63
2024-03-05T03:24:46.604Z,22.40
2024-03-05T03:27:14.352Z,22.77
2024-03-05T03:29:42.316Z,23.57
2024-03-05T03:32:11.818Z,24.73
2024-03-05T03:34:42.745Z,22.50
2024-03-05T03:37:10.214Z,23.20
2024-03-05T03:39:37.565Z,24.00
2024-03-05T03:42:04.850Z,23.40
2024-03-05T03:44:34.020Z,23.37
2024-03-05T03:47:06.210Z,25.43
2024-03-05T03:49:34.073Z,23.93
2024-03-05T03:52:01.677Z,25.30
2024-03-05T03:54:28.859Z,27.07
2024-03-05T03:56:56.499Z,25.57
2024-03-05T03:59:26.731Z,24.77
2024-03-05T04:01:56.788Z,22.97
2024-03-05T04:04:25.338Z,26.13
2024-03-05T04:06:56.175Z,27.07
2024-03-05T04:09:23.604Z,24.90
2024-03-05T04:11:51.164Z,22.63
2024-03-05T04:14:20.581Z,24.83
2024-03-05T04:16:48.040Z,25.27
2024-03-05T04:19:15.567Z,25.30
2024-03-05T04:21:44.022Z,26.30
2024-03-05T04:24:16.872Z,24.90
2024-03-05T04:26:49.570Z,24.30
2024-03-05T04:29:21.120Z,27.07
2024-03-05T04:32:06.832Z,25.60
2024-03-05T04:34:34.456Z,24.40
2024-03-05T04:37:02.029Z,23.80
2024-03-05T04:39:29.648Z,25.70
2024-03-05T04:41:56.735Z,25.20
2024-03-05T04:44:26.096Z,25.73
2024-03-05T04:46:53.533Z,23.37
2024-03-05T04:49:21.183Z,27.33
2024-03-05T04:51:48.508Z,28.10
2024-03-05T04:54:15.972Z,27.90
2024-03-05T04:56:43.226Z,25.80
2024-03-05T04:59:10.939Z,26.87
2024-03-05T05:01:41.469Z,27.50
2024-03-05T05:04:08.772Z,27.20
2024-03-05T05:06:35.945Z,28.03
2024-03-05T05:09:07.108Z,29.20
2024-03-05T05:11:35.496Z,27.30
2024-03-05T05:14:02.923Z,24.53
2024-03-05T05:16:30.392Z,29.30
2024-03-05T05:18:57.814Z,28.10
2024-03-05T05:21:25.889Z,26.20
2024-03-05T05:23:53.259Z,25.20
2024-03-05T05:26:20.625Z,26.30
2024-03-05T05:28:47.867Z,24.00
2024-03-05T05:31:26.919Z,26.17
2024-03-05T05:33:55.070Z,25.03
2024-03-05T05:36:22.473Z,25.80
2024-03-05T05:38:52.838Z,27.73
2024-03-05T05:41:19.980Z,26.53
2024-03-05T05:43:50.243Z,26.43
2024-03-05T05:46:20.469Z,25.47
2024-03-05T05:48:50.886Z,26.27
2024-03-05T05:51:19.833Z,25.10
2024-03-05T05:53:47.320Z,26.00
2024-03-05T05:56:18.377Z,25.80
2024-03-05T05:58:46.191Z,25.03
2024-03-05T06:01:15.537Z,27.50
2024-03-05T06:03:49.012Z,24.50
2024-03-05T06:06:21.425Z,24.83
2024-03-05T06:08:51.497Z,24.17
2024-03-05T06:11:19.202Z,25.40
2024-03-05T06:13:46.805Z,25.80
2024-03-05T06:16:14.165Z,29.87
2024-03-05T06:18:41.542Z,26.10
2024-03-05T06:21:09.058Z,26.80
2024-03-05T06:23:36.559Z,26.03
2024-03-05T06:26:04.024Z,26.33
2024-03-05T06:28:31.691Z,25.27
2024-03-05T06:31:01.681Z,25.13
2024-03-05T06:33:31.351Z,27.47
2024-03-05T06:35:59.570Z,24.90
2024-03-05T06:38:27.001Z,25.27
2024-03-05T06:40:56.400Z,24.63
2024-03-05T06:43:33.171Z,22.90
2024-03-05T06:46:04.304Z,25.37
2024-03-05T06:48:34.397Z,23.97
2024-03-05T06:51:05.121Z,25.37
2024-03-05T06:53:52.891Z,25.80
2024-03-05T06:56:38.985Z,23.93
2024-03-05T06:59:06.437Z,23.43
2024-03-05T07:01:36.230Z,23.83
2024-03-05T07:04:07.044Z,24.33
2024-03-05T07:06:37.234Z,22.77
2024-03-05T07:09:04.752Z,24.30
2024-03-05T07:11:32.044Z,23.83
2024-03-05T07:14:03.849Z,24.37
2024-03-05T07:16:34.919Z,25.17
2024-03-05T07:19:02.916Z,25.37
2024-03-05T07:21:30.206Z,25.87
2024-03-05T07:23:59.142Z,24.80
2024-03-05T07:26:26.768Z,23.13
2024-03-05T07:28:54.294Z,24.47
2024-03-05T07:31:21.805Z,22.13
2024-03-05T07:33:52.933Z,24.23
2024-03-05T07:36:21.800Z,24.80
2024-03-05T07:38:49.182Z,23.97
2024-03-05T07:41:26.658Z,24.80
2024-03-05T07:44:01.201Z,24.70
2024-03-05T07:46:29.391Z,26.07
2024-03-05T07:49:00.081Z,22.90
2024-03-05T07:51:29.470Z,23.57
2024-03-05T07:54:00.949Z,22.70
2024-03-05T07:56:31.397Z,22.30
2024-03-05T07:59:01.214Z,23.97
2024-03-05T08:01:29.102Z,23.07
2024-03-05T08:03:56.608Z,21.47
2024-03-05T08:06:23.867Z,23.90
2024-03-05T08:08:51.209Z,21.03
2024-03-05T08:11:18.648Z,22.63
2024-03-05T08:13:47.513Z,23.90
2024-03-05T08:16:14.931Z,23.27
2024-03-05T08:18:42.792Z,21.40
2024-03-05T08:21:09.940Z,24.60
2024-03-05T08:23:37.196Z,23.90
2024-03-05T08:26:06.693Z,23.73
2024-03-05T08:28:34.052Z,24.73
2024-03-05T08:31:01.526Z,24.63
2024-03-05T08:33:29.775Z,24.17
2024-03-05T08:35:57.668Z,25.00
2024-03-05T08:38:26.585Z,22.27
2024-03-05T08:40:54.054Z,24.17
2024-03-05T08:43:21.492Z,25.47
2024-03-05T08:45:48.896Z,25.83
2024-03-05T08:48:16.319Z,23.03
2024-03-05T08:50:43.805Z,26.13
2024-03-05T08:53:11.410Z,25.20
2024-03-05T08:55:38.921Z,23.83
2024-03-05T08:58:06.521Z,22.40
2024-03-05T09:00:42.020Z,23.17
2024-03-05T09:03:13.849Z,26.97
2024-03-05T09:05:44.338Z,25.93
2024-03-05T09:08:14.389Z,23.97
2024-03-05T09:10:42.401Z,25.90
2024-03-05T09:13:11.865Z,24.47
2024-03-05T09:15:44.331Z,25.70
2024-03-05T09:18:14.720Z,24.00
2024-03-05T09:20:43.819Z,26.70
2024-03-05T09:23:11.502Z,21.87
2024-03-05T09:25:43.537Z,25.60
2024-03-05T09:28:12.088Z,23.53
2024-03-05T09:30:40.469Z,20.60
2024-03-05T09:33:11.607Z,22.83
2024-03-05T09:35:42.292Z,20.57
2024-03-05T09:38:10.796Z,22.50
2024-03-05T09:49:54.003Z,19.10
2024-03-05T09:52:21.471Z,19.30
2024-03-05T09:54:49.009Z,20.40
2024-03-05T09:57:22.079Z,22.40
2024-03-05T09:59:51.789Z,19.80
2024-03-05T10:02:19.582Z,20.47
2024-03-05T10:04:47.553Z,20.73
2024-03-05T10:07:51.243Z,18.87
2024-03-05T10:10:23.336Z,20.03
2024-03-05T10:12:56.708Z,18.00
2024-03-05T10:15:30.200Z,19.40
2024-03-05T10:17:58.590Z,18.27
2024-03-05T10:20:34.437Z,18.37
2024-03-05T10:23:05.007Z,17.87
2024-03-05T10:25:37.474Z,21.80
2024-03-05T10:28:06.534Z,19.27
2024-03-05T10:30:36.416Z,21.17
2024-03-05T10:33:11.596Z,18.90
2024-03-05T10:35:40.349Z,20.27
2024-03-05T10:38:19.515Z,20.00
2024-03-05T10:40:48.228Z,20.23
2024-03-05T10:43:20.455Z,20.20
2024-03-05T10:45:52.339Z,19.70
2024-03-05T10:48:58.714Z,18.43
2024-03-05T10:51:36.820Z,16.30
2024-03-05T10:54:06.114Z,18.33
2024-03-05T10:56:43.333Z,16.97
2024-03-05T10:59:17.749Z,15.83
2024-03-05T11:01:46.590Z,17.87
2024-03-05T11:04:17.118Z,16.70
2024-03-05T11:06:46.860Z,15.80
2024-03-05T11:09:24.751Z,16.80
2024-03-05T11:12:04.720Z,16.53
2024-03-05T11:14:32.041Z,15.83
2024-03-05T11:17:11.823Z,15.27
2024-03-05T14:48:32.728Z,6.27
2024-03-05T14:51:01.184Z,6.70
2024-03-05T14:53:28.791Z,5.63
2024-03-05T14:55:56.373Z,5.30
2024-03-05T14:58:28.217Z,5.40
2024-03-05T15:00:58.912Z,5.53
2024-03-05T15:03:28.780Z,4.70
2024-03-05T15:05:59.056Z,6.07
2024-03-05T15:08:26.364Z,5.63
2024-03-05T15:10:56.877Z,5.50
2024-03-05T15:13:26.383Z,5.70
2024-03-05T15:15:53.776Z,5.70
2024-03-05T15:18:24.323Z,5.17
2024-03-05T15:20:56.184Z,6.00
2024-03-05T15:23:26.512Z,5.27
2024-03-05T15:25:59.148Z,6.37
2024-03-05T15:28:31.650Z,5.77
2024-03-05T15:30:59.915Z,5.53
2024-03-05T15:33:27.702Z,5.43
2024-03-05T15:35:55.173Z,5.40
2024-03-05T15:38:26.067Z,5.93
2024-03-05T15:40:56.015Z,6.30
2024-03-05T15:43:23.614Z,7.10
2024-03-05T15:45:52.992Z,6.30
2024-03-05T15:48:22.960Z,6.70
2024-03-05T15:50:52.937Z,6.93
2024-03-05T15:53:25.536Z,6.60
2024-03-05T15:56:02.865Z,6.97
2024-03-05T15:58:45.384Z,6.20
2024-03-05T16:01:13.545Z,7.53
2024-03-05T16:03:57.204Z,7.17
2024-03-05T16:06:34.061Z,5.90
2024-03-05T16:09:01.394Z,6.77
2024-03-05T16:11:28.843Z,7.20
2024-03-05T16:13:56.387Z,5.23
2024-03-05T16:16:25.166Z,5.83
2024-03-05T16:18:52.925Z,5.60
2024-03-05T16:21:21.607Z,6.17
2024-03-05T16:23:51.536Z,4.27
2024-03-05T16:26:19.379Z,4.50
2024-03-05T16:28:50.924Z,4.53
2024-03-05T16:31:18.476Z,4.43
2024-03-05T16:33:47.162Z,4.77
2024-03-05T16:36:22.217Z,4.53
2024-03-05T16:38:50.081Z,5.53
2024-03-05T16:41:17.215Z,4.47
2024-03-05T16:43:45.110Z,4.50
2024-03-05T16:46:13.157Z,5.77
2024-03-05T16:48:43.586Z,4.67
2024-03-05T16:51:11.970Z,4.90
2024-03-05T16:53:42.289Z,4.73
2024-03-05T16:56:09.850Z,5.37
2024-03-05T16:58:39.974Z,5.73
2024-03-05T17:01:16.067Z,7.07
2024-03-05T17:03:46.486Z,5.50
2024-03-05T17:06:20.370Z,4.97
2024-03-05T17:08:50.159Z,5.53
2024-03-05T17:11:17.769Z,7.00
2024-03-05T17:13:47.746Z,6.43
2024-03-05T17:16:16.604Z,6.30
2024-03-05T17:18:44.009Z,5.97
2024-03-05T17:21:11.458Z,6.33
2024-03-05T17:23:43.606Z,5.43
2024-03-05T17:26:13.450Z,6.67
2024-03-05T17:28:42.449Z,6.53
2024-03-05T17:31:10.099Z,6.60
2024-03-05T17:33:39.121Z,6.07
2024-03-05T17:36:06.769Z,6.60
2024-03-05T17:38:36.625Z,6.00
2024-03-05T17:41:04.931Z,6.60
2024-03-05T17:43:34.789Z,6.17
2024-03-05T17:46:04.093Z,7.27
2024-03-05T17:48:31.756Z,7.00
2024-03-05T17:50:59.875Z,6.83
2024-03-05T17:53:29.722Z,7.23
2024-03-05T17:55:57.273Z,6.83
2024-03-05T17:58:25.036Z,6.27
2024-03-05T18:00:52.676Z,7.63
2024-03-05T18:03:23.775Z,7.20
2024-03-05T18:06:10.879Z,7.13
2024-03-05T18:08:38.807Z,7.23
2024-03-05T18:11:07.206Z,7.27
2024-03-05T18:13:34.929Z,6.90
2024-03-05T18:16:03.482Z,6.87
2024-03-05T18:18:31.403Z,7.13
2024-03-05T18:20:59.938Z,7.90
2024-03-05T18:23:27.680Z,7.70
2024-03-05T18:25:55.086Z,6.77
2024-03-05T18:28:24.510Z,6.97
2024-03-05T18:30:52.188Z,7.73
2024-03-05T18:33:22.719Z,7.40
2024-03-05T18:35:52.038Z,7.43
2024-03-05T18:38:27.897Z,8.23
2024-03-05T18:41:03.046Z,7.70
2024-03-05T18:43:33.945Z,7.83
2024-03-05T18:46:02.318Z,8.93
2024-03-05T18:48:31.965Z,8.03
2024-03-05T18:51:02.380Z,7.73
2024-03-05T18:53:39.366Z,7.90
2024-03-05T18:56:13.635Z,7.83
2024-03-05T18:58:42.881Z,7.47
2024-03-05T19:01:11.910Z,8.10
2024-03-05T19:03:40.612Z,9.57
2024-03-05T19:06:08.033Z,7.87
2024-03-05T19:08:35.332Z,10.27
2024-03-05T19:11:02.599Z,9.30
2024-03-05T19:13:32.963Z,9.80
2024-03-05T19:16:02.758Z,9.20
2024-03-05T19:18:29.960Z,8.47
2024-03-05T19:21:02.735Z,10.53
2024-03-05T19:23:30.141Z,9.87
2024-03-05T19:26:02.108Z,9.67
2024-03-05T19:28:34.760Z,8.83
2024-03-05T19:31:03.917Z,11.40
2024-03-05T19:33:32.740Z,10.70
2024-03-05T19:36:01.743Z,9.23
2024-03-05T19:38:31.899Z,10.30
2024-03-05T19:41:05.173Z,11.60
2024-03-05T19:43:37.747Z,9.83
2024-03-05T19:46:05.887Z,9.67
2024-03-05T19:48:35.282Z,10.30
2024-03-05T19:51:03.629Z,9.60
2024-03-05T19:53:31.190Z,9.20
2024-03-05T19:55:59.003Z,9.70
2024-03-05T19:58:26.656Z,9.60
2024-03-05T20:00:57.286Z,10.53
2024-03-05T20:03:29.325Z,10.57
2024-03-05T20:06:01.677Z,8.70
2024-03-05T20:08:37.017Z,9.00
2024-03-05T20:11:10.019Z,10.10
2024-03-05T20:13:39.624Z,10.23
2024-03-05T20:16:13.924Z,9.63
2024-03-05T20:18:44.739Z,10.70
2024-03-05T20:21:12.103Z,11.30
2024-03-05T20:23:39.747Z,10.63
2024-03-05T20:26:09.416Z,10.77
2024-03-05T20:28:42.986Z,9.97
2024-03-05T20:31:12.695Z,10.50
2024-03-05T20:33:40.339Z,11.87
2024-03-05T20:36:10.825Z,10.60
2024-03-05T20:38:42.513Z,11.07
2024-03-05T20:41:09.933Z,10.50
2024-03-05T20:43:46.227Z,11.00
2024-03-05T20:46:15.875Z,11.70
2024-03-05T20:48:45.224Z,11.43
2024-03-05T20:51:13.757Z,10.23
2024-03-05T20:53:44.497Z,10.07
2024-03-05T20:56:13.096Z,11.30
2024-03-05T20:58:55.176Z,10.83
2024-03-05T21:01:24.834Z,11.70
2024-03-05T21:03:57.168Z,12.70
2024-03-05T21:06:27.917Z,11.13
2024-03-05T21:09:00.689Z,11.00
2024-03-05T21:11:28.913Z,12.40
2024-03-05T21:13:58.015Z,11.47
2024-03-05T21:16:26.933Z,11.97
2024-03-05T21:18:57.501Z,12.10
2024-03-05T21:21:26.425Z,11.67
2024-03-05T21:23:57.636Z,11.07
2024-03-05T21:26:35.635Z,11.23
2024-03-05T21:29:17.675Z,11.03
2024-03-05T21:31:48.830Z,11.53
2024-03-05T21:34:17.609Z,11.90
2024-03-05T21:36:49.619Z,10.20
2024-03-05T21:39:20.977Z,12.30
2024-03-05T21:41:50.128Z,12.17
2024-03-05T21:44:26.170Z,13.90
2024-03-05T21:47:05.820Z,13.57
2024-03-05T21:49:37.223Z,13.02
2024-03-05T21:52:06.028Z,13.63
2024-03-05T21:54:41.371Z,13.27
2024-03-05T21:57:09.895Z,15.07
2024-03-05T21:59:38.632Z,13.20
2024-03-05T22:02:08.456Z,12.90
2024-03-05T22:04:37.519Z,12.13
2024-03-05T22:07:10.395Z,14.80
2024-03-05T22:09:39.993Z,13.40
2024-03-05T22:12:11.339Z,14.00
2024-03-05T22:14:45.311Z,13.50
2024-03-05T22:17:16.267Z,13.13
2024-03-05T22:19:45.489Z,14.77
2024-03-05T22:22:14.602Z,14.10
2024-03-05T22:24:43.487Z,14.93
2024-03-05T22:27:11.250Z,16.83
2024-03-05T22:29:40.415Z,15.37
2024-03-05T22:32:08.920Z,14.90
2024-03-05T22:34:38.228Z,13.00
2024-03-05T22:37:06.257Z,15.07
2024-03-05T22:39:34.537Z,13.87
2024-03-05T22:42:02.936Z,15.43
2024-03-05T22:44:33.378Z,14.40
2024-03-05T22:47:01.375Z,12.80
2024-03-05T22:49:29.799Z,14.40
2024-03-05T22:51:57.816Z,13.83
2024-03-05T22:54:25.895Z,15.40
2024-03-05T22:56:54.475Z,14.70
2024-03-05T22:59:22.838Z,15.50
2024-03-05T23:01:55.754Z,14.23
2024-03-05T23:04:24.182Z,14.70
2024-03-05T23:06:52.796Z,16.60
2024-03-05T23:09:23.850Z,14.73
2024-03-05T23:11:55.858Z,14.83
2024-03-05T23:14:24.766Z,15.20
2024-03-05T23:16:53.022Z,15.10
2024-03-05T23:19:21.818Z,15.87
2024-03-05T23:21:53.046Z,15.87
2024-03-05T23:24:24.922Z,14.87
2024-03-05T23:26:55.995Z,14.67
2024-03-05T23:29:26.923Z,14.70
2024-03-05T23:31:59.963Z,14.80
2024-03-05T23:34:28.340Z,15.63
2024-03-05T23:37:00.638Z,16.20
2024-03-05T23:39:31.326Z,15.90
2024-03-05T23:42:02.566Z,15.27
2024-03-05T23:44:30.466Z,16.77
2024-03-05T23:47:05.996Z,15.37
2024-03-05T23:49:37.354Z,17.43
2024-03-05T23:52:05.387Z,15.70
2024-03-05T23:54:35.815Z,16.37
2024-03-05T23:57:11.118Z,17.10
2024-03-05T23:59:44.964Z,17.07
